createdAt,value
2019-03-24T00:00:19.064Z,75.56
2019-03-24T00:01:19.070Z,76.17
2019-03-24T00:02:19.074Z,77.44
2019-03-24T00:03:19.041Z,77.00
2019-03-24T00:04:19.089Z,77.30
2019-03-24T00:05:19.012Z,77.30
2019-03-24T00:06:19.040Z,75.66
2019-03-24T00:07:18.985Z,75.56
2019-03-24T00:08:18.986Z,76.17
2019-03-24T00:09:18.963Z,76.79
2019-03-24T00:10:18.958Z,76.68
2019-03-24T00:11:18.972Z,76.28
2019-03-24T00:12:18.956Z,76.89
2019-03-24T00:13:18.926Z,77.44
2019-03-24T00:14:18.930Z,77.10
2019-03-24T00:15:26.351Z,76.21
2019-03-24T00:16:19.882Z,76.28
2019-03-24T00:17:18.927Z,76.10
2019-03-24T00:18:18.876Z,75.87
2019-03-24T00:19:18.859Z,76.17
2019-03-24T00:20:18.853Z,77.13
2019-03-24T00:21:18.841Z,76.10
2019-03-24T00:22:18.819Z,76.72
2019-03-24T00:23:18.845Z,76.93
2019-03-24T00:24:18.799Z,76.10
2019-03-24T00:25:18.810Z,76.82
2019-03-24T00:26:18.781Z,76.31
2019-03-24T00:27:18.788Z,76.93
2019-03-24T00:28:18.766Z,76.42
2019-03-24T00:29:18.740Z,76.82
2019-03-24T00:30:18.742Z,76.93
2019-03-24T00:31:18.745Z,76.21
2019-03-24T00:32:18.717Z,76.10
2019-03-24T00:33:18.720Z,76.93
2019-03-24T00:34:18.710Z,76.72
2019-03-24T00:35:18.683Z,76.72
2019-03-24T00:36:18.661Z,76.72
2019-03-24T00:37:18.701Z,76.72
2019-03-24T00:38:18.672Z,77.44
2019-03-24T00:39:18.641Z,76.10
2019-03-24T00:40:18.629Z,77.03
2019-03-24T00:41:18.614Z,76.82
2019-03-24T00:42:18.623Z,76.10
2019-03-24T00:43:18.595Z,76.82
2019-03-24T00:44:18.642Z,76.42
2019-03-24T00:45:18.569Z,76.51
2019-03-24T00:46:18.600Z,77.06
2019-03-24T00:47:18.553Z,76.62
2019-03-24T00:48:18.590Z,76.82
2019-03-24T00:49:18.525Z,76.55
2019-03-24T00:50:18.519Z,77.34
2019-03-24T00:51:18.505Z,77.58
2019-03-24T00:52:18.488Z,76.86
2019-03-24T00:53:18.493Z,76.93
2019-03-24T00:54:18.470Z,76.97
2019-03-24T00:55:18.453Z,76.76
2019-03-24T00:56:18.442Z,77.58
2019-03-24T00:57:18.428Z,77.48
2019-03-24T00:58:18.441Z,77.17
2019-03-24T00:59:18.490Z,77.48
2019-03-24T01:00:18.401Z,78.09
2019-03-24T01:01:18.432Z,77.78
2019-03-24T01:02:18.389Z,77.78
2019-03-24T01:03:18.371Z,77.17
2019-03-24T01:04:18.434Z,77.78
2019-03-24T01:05:18.351Z,77.58
2019-03-24T01:06:18.341Z,77.37
2019-03-24T01:07:18.324Z,77.99
2019-03-24T01:08:18.328Z,77.89
2019-03-24T01:09:18.306Z,78.54
2019-03-24T01:10:18.295Z,77.68
2019-03-24T01:11:18.288Z,77.89
2019-03-24T01:12:18.266Z,77.78
2019-03-24T01:13:18.284Z,78.23
2019-03-24T01:14:18.261Z,77.68
2019-03-24T01:15:18.233Z,77.82
2019-03-24T01:16:18.229Z,77.92
2019-03-24T01:17:18.216Z,77.82
2019-03-24T01:18:18.210Z,77.89
2019-03-24T01:19:18.210Z,78.30
2019-03-24T01:20:18.193Z,77.89
2019-03-24T01:21:18.176Z,78.03
2019-03-24T01:22:18.179Z,77.20
2019-03-24T01:23:18.168Z,77.78
2019-03-24T01:24:18.159Z,77.92
2019-03-24T01:25:18.123Z,78.44
2019-03-24T01:26:18.115Z,78.20
2019-03-24T01:27:18.104Z,78.23
2019-03-24T01:28:18.125Z,78.64
2019-03-24T01:29:18.084Z,78.23
2019-03-24T01:30:18.080Z,78.96
2019-03-24T01:31:18.065Z,78.54
2019-03-24T01:32:18.050Z,78.44
2019-03-24T01:33:18.045Z,77.82
2019-03-24T01:34:18.043Z,78.13
2019-03-24T01:35:18.016Z,78.44
2019-03-24T01:36:18.035Z,78.33
2019-03-24T01:37:18.029Z,78.23
2019-03-24T01:38:17.995Z,78.23
2019-03-24T01:39:17.994Z,77.92
2019-03-24T01:40:17.992Z,77.82
2019-03-24T01:41:17.963Z,77.92
2019-03-24T01:42:17.952Z,78.13
2019-03-24T01:43:17.927Z,78.23
2019-03-24T01:44:17.937Z,78.54
2019-03-24T01:45:17.927Z,78.23
2019-03-24T01:46:17.894Z,78.54
2019-03-24T01:47:17.923Z,78.23
2019-03-24T01:48:17.881Z,78.96
2019-03-24T01:49:17.880Z,78.64
2019-03-24T01:50:17.873Z,78.75
2019-03-24T01:51:17.837Z,78.96
2019-03-24T01:52:17.834Z,79.16
2019-03-24T01:53:17.821Z,79.16
2019-03-24T01:54:17.852Z,78.75
2019-03-24T01:55:17.796Z,78.54
2019-03-24T01:56:17.802Z,79.61
2019-03-24T01:57:17.795Z,79.09
2019-03-24T01:58:17.763Z,79.47
2019-03-24T01:59:17.773Z,79.19
2019-03-24T02:00:17.779Z,78.99
2019-03-24T02:01:17.742Z,78.89
2019-03-24T02:02:17.742Z,79.61
2019-03-24T02:03:17.710Z,79.30
2019-03-24T02:04:17.715Z,79.71
2019-03-24T02:05:17.704Z,79.81
2019-03-24T02:06:17.682Z,79.91
2019-03-24T02:07:17.672Z,80.02
2019-03-24T02:08:17.664Z,79.61
2019-03-24T02:09:17.650Z,80.02
2019-03-24T02:10:17.647Z,79.61
2019-03-24T02:11:17.628Z,79.50
2019-03-24T02:12:17.618Z,79.50
2019-03-24T02:13:17.613Z,79.40
2019-03-24T02:14:17.602Z,79.71
2019-03-24T02:15:17.622Z,79.50
2019-03-24T02:16:17.568Z,79.50
2019-03-24T02:17:17.554Z,78.99
2019-03-24T02:18:17.548Z,79.71
2019-03-24T02:19:17.532Z,79.40
2019-03-24T02:20:17.538Z,78.92
2019-03-24T02:21:17.512Z,79.50
2019-03-24T02:22:17.514Z,79.50
2019-03-24T02:23:17.486Z,79.50
2019-03-24T02:24:17.480Z,78.78
2019-03-24T02:25:17.479Z,78.99
2019-03-24T02:26:17.460Z,79.40
2019-03-24T02:27:17.445Z,79.30
2019-03-24T02:28:17.598Z,79.91
2019-03-24T02:29:17.422Z,79.54
2019-03-24T02:30:17.437Z,79.40
2019-03-24T02:31:17.401Z,79.23
2019-03-24T02:32:17.403Z,79.19
2019-03-24T02:33:17.403Z,79.54
2019-03-24T02:34:17.374Z,79.64
2019-03-24T02:35:17.383Z,79.19
2019-03-24T02:36:17.381Z,79.19
2019-03-24T02:37:17.529Z,79.13
2019-03-24T02:38:17.342Z,78.82
2019-03-24T02:39:17.318Z,79.54
2019-03-24T02:40:17.305Z,79.64
2019-03-24T02:41:17.312Z,79.64
2019-03-24T02:42:17.295Z,79.64
2019-03-24T02:43:17.275Z,79.95
2019-03-24T02:44:17.264Z,79.33
2019-03-24T02:45:17.248Z,79.75
2019-03-24T02:46:24.243Z,79.95
2019-03-24T02:47:18.226Z,79.64
2019-03-24T02:48:17.221Z,79.33
2019-03-24T02:49:17.214Z,79.54
2019-03-24T02:50:17.254Z,79.27
2019-03-24T02:51:17.248Z,79.75
2019-03-24T02:52:17.169Z,79.64
2019-03-24T02:53:17.175Z,79.54
2019-03-24T02:54:17.159Z,79.58
2019-03-24T02:55:17.140Z,79.75
2019-03-24T02:56:17.161Z,79.64
2019-03-24T02:57:17.119Z,79.75
2019-03-24T02:58:17.103Z,79.95
2019-03-24T02:59:17.096Z,79.75
2019-03-24T03:00:17.084Z,80.05
2019-03-24T03:01:17.097Z,79.99
2019-03-24T03:02:17.088Z,80.16
2019-03-24T03:03:17.047Z,80.05
2019-03-24T03:04:17.044Z,80.05
2019-03-24T03:05:17.040Z,80.77
2019-03-24T03:06:17.035Z,80.67
2019-03-24T03:07:17.021Z,80.77
2019-03-24T03:08:16.994Z,80.88
2019-03-24T03:09:16.987Z,80.88
2019-03-24T03:10:16.972Z,80.51
2019-03-24T03:11:16.962Z,80.77
2019-03-24T03:12:16.969Z,80.47
2019-03-24T03:13:16.950Z,80.57
2019-03-24T03:14:16.926Z,80.91
2019-03-24T03:15:16.919Z,80.47
2019-03-24T03:16:16.931Z,81.02
2019-03-24T03:17:16.928Z,81.02
2019-03-24T03:18:16.902Z,80.88
2019-03-24T03:19:16.895Z,81.12
2019-03-24T03:20:16.863Z,81.09
2019-03-24T03:21:16.873Z,80.77
2019-03-24T03:22:16.866Z,81.12
2019-03-24T03:23:16.831Z,81.02
2019-03-24T03:24:16.827Z,80.91
2019-03-24T03:25:16.820Z,81.09
2019-03-24T03:26:16.797Z,81.12
2019-03-24T03:27:16.881Z,80.88
2019-03-24T03:28:16.778Z,81.09
2019-03-24T03:29:16.763Z,81.02
2019-03-24T03:30:16.768Z,81.12
2019-03-24T03:31:16.752Z,80.88
2019-03-24T03:32:16.787Z,80.71
2019-03-24T03:33:16.740Z,80.77
2019-03-24T03:34:16.733Z,80.91
2019-03-24T03:35:16.705Z,81.09
2019-03-24T03:36:16.708Z,81.23
2019-03-24T03:37:16.707Z,81.43
2019-03-24T03:38:16.804Z,80.91
2019-03-24T03:39:16.675Z,81.43
2019-03-24T03:40:16.654Z,81.95
2019-03-24T03:41:16.710Z,82.15
2019-03-24T03:42:16.653Z,82.15
2019-03-24T03:43:16.650Z,82.15
2019-03-24T03:44:16.604Z,82.15
2019-03-24T03:45:16.610Z,82.35
2019-03-24T03:46:16.589Z,82.25
2019-03-24T03:47:16.593Z,82.25
2019-03-24T03:48:16.602Z,82.35
2019-03-24T03:49:16.547Z,81.84
2019-03-24T03:50:16.537Z,82.15
2019-03-24T03:51:16.525Z,81.74
2019-03-24T03:52:16.527Z,82.05
2019-03-24T03:53:16.523Z,81.84
2019-03-24T03:54:16.499Z,82.05
2019-03-24T03:55:16.483Z,82.05
2019-03-24T03:56:16.472Z,82.25
2019-03-24T03:57:16.460Z,82.01
2019-03-24T03:58:16.483Z,82.05
2019-03-24T03:59:16.462Z,82.15
2019-03-24T04:00:16.437Z,82.25
2019-03-24T04:01:16.433Z,82.05
2019-03-24T04:02:16.416Z,82.05
2019-03-24T04:03:16.424Z,82.05
2019-03-24T04:04:16.401Z,82.35
2019-03-24T04:05:16.375Z,82.25
2019-03-24T04:06:16.386Z,82.77
2019-03-24T04:07:16.360Z,82.56
2019-03-24T04:08:16.390Z,82.05
2019-03-24T04:09:16.341Z,82.56
2019-03-24T04:10:16.321Z,82.25
2019-03-24T04:11:16.310Z,82.05
2019-03-24T04:12:16.316Z,82.67
2019-03-24T04:13:16.295Z,82.77
2019-03-24T04:14:16.307Z,82.25
2019-03-24T04:15:16.273Z,82.15
2019-03-24T04:16:16.251Z,82.35
2019-03-24T04:17:16.245Z,82.19
2019-03-24T04:18:16.233Z,82.05
2019-03-24T04:19:16.258Z,82.25
2019-03-24T04:20:16.212Z,81.88
2019-03-24T04:21:16.231Z,82.05
2019-03-24T04:22:16.201Z,82.15
2019-03-24T04:23:16.223Z,82.05
2019-03-24T04:24:16.189Z,81.84
2019-03-24T04:25:16.160Z,82.15
2019-03-24T04:26:16.153Z,82.19
2019-03-24T04:27:16.212Z,81.95
2019-03-24T04:28:16.128Z,82.09
2019-03-24T04:29:16.138Z,82.05
2019-03-24T04:30:16.099Z,82.29
2019-03-24T04:31:16.096Z,82.09
2019-03-24T04:32:16.088Z,82.19
2019-03-24T04:33:16.070Z,82.19
2019-03-24T04:34:16.073Z,82.29
2019-03-24T04:35:16.044Z,82.60
2019-03-24T04:36:16.049Z,82.91
2019-03-24T04:37:16.044Z,82.40
2019-03-24T04:38:16.015Z,82.60
2019-03-24T04:39:16.024Z,82.29
2019-03-24T04:40:16.070Z,82.15
2019-03-24T04:41:15.993Z,82.29
2019-03-24T04:42:15.995Z,82.50
2019-03-24T04:43:15.974Z,82.70
2019-03-24T04:44:15.972Z,82.56
2019-03-24T04:45:15.978Z,82.19
2019-03-24T04:46:15.947Z,82.81
2019-03-24T04:47:16.832Z,83.01
2019-03-24T04:48:15.916Z,82.50
2019-03-24T04:49:15.910Z,83.22
2019-03-24T04:50:15.970Z,83.01
2019-03-24T04:51:15.870Z,83.42
2019-03-24T04:52:15.872Z,83.63
2019-03-24T04:53:15.858Z,83.63
2019-03-24T04:54:15.921Z,83.73
2019-03-24T04:55:15.860Z,83.73
2019-03-24T04:56:15.825Z,83.32
2019-03-24T04:57:15.810Z,83.36
2019-03-24T04:58:15.819Z,84.08
2019-03-24T04:59:15.806Z,83.73
2019-03-24T05:00:15.798Z,84.08
2019-03-24T05:01:15.800Z,83.63
2019-03-24T05:02:15.775Z,83.87
2019-03-24T05:03:15.751Z,84.70
2019-03-24T05:04:15.726Z,84.35
2019-03-24T05:05:15.739Z,84.29
2019-03-24T05:06:15.718Z,83.67
2019-03-24T05:07:15.709Z,84.29
2019-03-24T05:08:15.736Z,84.39
2019-03-24T05:09:15.691Z,84.29
2019-03-24T05:10:15.669Z,84.14
2019-03-24T05:11:15.674Z,84.29
2019-03-24T05:12:15.655Z,84.19
2019-03-24T05:13:15.634Z,83.77
2019-03-24T05:14:15.634Z,84.05
2019-03-24T05:15:15.652Z,84.19
2019-03-24T05:16:15.599Z,83.67
2019-03-24T05:17:15.588Z,84.39
2019-03-24T05:18:15.587Z,83.56
2019-03-24T05:19:15.586Z,84.56
2019-03-24T05:20:15.557Z,84.08
2019-03-24T05:21:15.555Z,84.08
2019-03-24T05:22:15.547Z,83.56
2019-03-24T05:23:15.536Z,83.67
2019-03-24T05:24:15.513Z,84.19
2019-03-24T05:25:15.504Z,84.08
2019-03-24T05:26:15.522Z,83.87
2019-03-24T05:27:15.478Z,84.49
2019-03-24T05:28:15.482Z,83.87
2019-03-24T05:29:15.458Z,84.39
2019-03-24T05:30:15.449Z,84.91
2019-03-24T05:31:15.474Z,84.80
2019-03-24T05:32:15.429Z,84.91
2019-03-24T05:33:15.438Z,84.29
2019-03-24T05:34:15.401Z,85.42
2019-03-24T05:35:15.401Z,85.42
2019-03-24T05:36:15.400Z,85.52
2019-03-24T05:37:15.374Z,85.52
2019-03-24T05:38:15.356Z,85.49
2019-03-24T05:39:15.347Z,85.52
2019-03-24T05:40:15.377Z,85.52
2019-03-24T05:41:15.409Z,85.31
2019-03-24T05:42:15.314Z,85.31
2019-03-24T05:43:15.302Z,85.49
2019-03-24T05:44:15.295Z,85.28
2019-03-24T05:45:15.286Z,85.42
2019-03-24T05:46:15.275Z,85.49
2019-03-24T05:47:15.287Z,85.69
2019-03-24T05:48:15.248Z,85.17
2019-03-24T05:49:15.240Z,85.49
2019-03-24T05:50:15.230Z,85.59
2019-03-24T05:51:15.216Z,85.38
2019-03-24T05:52:15.237Z,85.38
2019-03-24T05:53:15.196Z,85.59
2019-03-24T05:54:15.187Z,85.07
2019-03-24T05:55:15.184Z,85.59
2019-03-24T05:56:15.161Z,85.49
2019-03-24T05:57:15.169Z,85.28
2019-03-24T05:58:15.164Z,84.97
2019-03-24T05:59:15.134Z,85.34
2019-03-24T06:00:15.123Z,85.38
2019-03-24T06:01:15.163Z,85.59
2019-03-24T06:02:15.093Z,85.49
2019-03-24T06:03:15.109Z,85.55
2019-03-24T06:04:15.079Z,85.24
2019-03-24T06:05:15.062Z,85.24
2019-03-24T06:06:15.060Z,85.55
2019-03-24T06:07:15.049Z,85.44
2019-03-24T06:08:15.042Z,85.34
2019-03-24T06:09:15.025Z,85.44
2019-03-24T06:10:15.030Z,85.44
2019-03-24T06:11:15.003Z,85.55
2019-03-24T06:12:15.026Z,85.03
2019-03-24T06:13:14.998Z,85.03
2019-03-24T06:14:14.968Z,85.03
2019-03-24T06:15:14.974Z,85.44
2019-03-24T06:16:14.955Z,85.03
2019-03-24T06:17:14.950Z,84.93
2019-03-24T06:18:14.942Z,84.31
2019-03-24T06:19:14.912Z,84.42
2019-03-24T06:20:14.895Z,84.83
2019-03-24T06:21:14.893Z,84.93
2019-03-24T06:22:14.899Z,85.34
2019-03-24T06:23:14.885Z,85.44
2019-03-24T06:24:14.853Z,85.44
2019-03-24T06:25:14.870Z,85.34
2019-03-24T06:26:14.836Z,85.55
2019-03-24T06:27:14.829Z,85.14
2019-03-24T06:28:14.855Z,85.92
2019-03-24T06:29:14.831Z,85.20
2019-03-24T06:30:14.792Z,86.06
2019-03-24T06:31:14.775Z,85.96
2019-03-24T06:32:14.773Z,85.51
2019-03-24T06:33:14.771Z,85.41
2019-03-24T06:34:14.784Z,85.55
2019-03-24T06:35:14.792Z,85.41
2019-03-24T06:36:14.757Z,84.99
2019-03-24T06:37:14.794Z,84.69
2019-03-24T06:38:14.700Z,84.69
2019-03-24T06:39:14.743Z,84.58
2019-03-24T06:40:14.677Z,85.30
2019-03-24T06:41:14.700Z,85.51
2019-03-24T06:42:14.660Z,85.10
2019-03-24T06:43:14.645Z,84.07
2019-03-24T06:44:14.721Z,84.13
2019-03-24T06:45:14.626Z,84.75
2019-03-24T06:46:15.096Z,84.03
2019-03-24T06:47:14.606Z,83.97
2019-03-24T06:48:14.606Z,83.86
2019-03-24T06:49:14.603Z,84.44
2019-03-24T06:50:14.703Z,83.72
2019-03-24T06:51:14.568Z,83.72
2019-03-24T06:52:14.550Z,84.13
2019-03-24T06:53:14.550Z,84.03
2019-03-24T06:54:14.549Z,83.92
2019-03-24T06:55:14.550Z,84.30
2019-03-24T06:56:14.503Z,84.50
2019-03-24T06:57:16.852Z,84.61
2019-03-24T06:58:14.481Z,83.89
2019-03-24T06:59:14.487Z,84.30
2019-03-24T07:00:14.542Z,83.99
2019-03-24T07:01:14.488Z,83.27
2019-03-24T07:02:14.441Z,83.78
2019-03-24T07:03:14.437Z,83.58
2019-03-24T07:04:14.413Z,84.09
2019-03-24T07:05:14.438Z,83.78
2019-03-24T07:06:14.407Z,83.89
2019-03-24T07:07:14.386Z,83.85
2019-03-24T07:08:14.383Z,83.17
2019-03-24T07:09:14.357Z,83.37
2019-03-24T07:10:14.374Z,84.05
2019-03-24T07:11:14.346Z,82.71
2019-03-24T07:12:14.329Z,83.54
2019-03-24T07:13:14.313Z,82.41
2019-03-24T07:14:14.323Z,82.71
2019-03-24T07:15:14.316Z,83.54
2019-03-24T07:16:14.315Z,83.13
2019-03-24T07:17:14.285Z,83.33
2019-03-24T07:18:14.283Z,83.03
2019-03-24T07:19:14.253Z,82.00
2019-03-24T07:20:14.264Z,81.86
2019-03-24T07:21:14.307Z,81.86
2019-03-24T07:22:14.228Z,81.90
2019-03-24T07:23:14.228Z,81.45
2019-03-24T07:24:14.193Z,81.28
2019-03-24T07:25:14.210Z,81.55
2019-03-24T07:26:14.172Z,81.86
2019-03-24T07:27:14.164Z,82.37
2019-03-24T07:28:14.165Z,82.17
2019-03-24T07:29:14.144Z,81.96
2019-03-24T07:30:14.153Z,81.65
2019-03-24T07:31:14.133Z,81.96
2019-03-24T07:32:14.208Z,81.41
2019-03-24T07:33:14.113Z,80.93
2019-03-24T07:34:14.092Z,81.30
2019-03-24T07:35:14.101Z,81.51
2019-03-24T07:36:14.082Z,81.27
2019-03-24T07:37:14.049Z,81.20
2019-03-24T07:38:14.050Z,80.96
2019-03-24T07:39:14.048Z,80.65
2019-03-24T07:40:14.027Z,80.49
2019-03-24T07:41:14.048Z,80.65
2019-03-24T07:42:14.016Z,80.24
2019-03-24T07:43:13.983Z,80.65
2019-03-24T07:44:13.973Z,80.14
2019-03-24T07:45:13.962Z,80.72
2019-03-24T07:46:13.969Z,80.04
2019-03-24T07:47:13.973Z,80.10
2019-03-24T07:48:19.040Z,80.10
2019-03-24T07:49:14.921Z,80.41
2019-03-24T07:50:13.925Z,80.00
2019-03-24T07:51:13.910Z,79.59
2019-03-24T07:52:13.928Z,79.49
2019-03-24T07:53:13.895Z,79.49
2019-03-24T07:54:13.883Z,78.67
2019-03-24T07:55:13.863Z,78.53
2019-03-24T07:56:13.839Z,79.04
2019-03-24T07:57:13.853Z,77.91
2019-03-24T07:58:13.819Z,78.12
2019-03-24T07:59:13.808Z,78.94
2019-03-24T08:00:13.828Z,77.91
2019-03-24T08:01:13.832Z,78.70
2019-03-24T08:02:13.797Z,78.45
2019-03-24T08:03:13.772Z,77.06
2019-03-24T08:04:13.762Z,76.81
2019-03-24T08:05:13.755Z,76.51
2019-03-24T08:06:13.731Z,76.72
2019-03-24T08:07:13.731Z,75.48
2019-03-24T08:08:13.740Z,74.84
2019-03-24T08:09:13.708Z,76.27
2019-03-24T08:10:13.699Z,76.47
2019-03-24T08:11:13.677Z,76.27
2019-03-24T08:12:13.668Z,75.76
2019-03-24T08:13:13.666Z,74.49
2019-03-24T08:14:13.674Z,74.80
2019-03-24T08:15:13.639Z,74.49
2019-03-24T08:16:13.632Z,74.08
2019-03-24T08:17:13.637Z,73.16
2019-03-24T08:18:13.617Z,72.72
2019-03-24T08:19:13.606Z,73.13
2019-03-24T08:20:13.574Z,73.44
2019-03-24T08:21:13.569Z,72.72
2019-03-24T08:22:13.585Z,73.71
2019-03-24T08:23:13.565Z,74.32
2019-03-24T08:24:13.535Z,73.40
2019-03-24T08:25:13.601Z,73.20
2019-03-24T08:26:13.549Z,72.96
2019-03-24T08:27:13.516Z,72.96
2019-03-24T08:28:13.523Z,72.82
2019-03-24T08:29:13.487Z,71.29
2019-03-24T08:30:13.490Z,70.88
2019-03-24T08:31:13.465Z,70.57
2019-03-24T08:32:13.471Z,70.54
2019-03-24T08:33:13.462Z,70.75
2019-03-24T08:34:13.503Z,71.36
2019-03-24T08:35:13.427Z,70.51
2019-03-24T08:36:15.612Z,69.90
2019-03-24T08:37:13.426Z,70.31
2019-03-24T08:38:13.408Z,69.79
2019-03-24T08:39:13.367Z,70.20
2019-03-24T08:40:13.366Z,69.56
2019-03-24T08:41:13.350Z,69.96
2019-03-24T08:42:13.359Z,67.82
2019-03-24T08:43:13.340Z,69.25
2019-03-24T08:44:13.356Z,67.82
2019-03-24T08:45:13.323Z,67.82
2019-03-24T08:46:13.307Z,69.02
2019-03-24T08:47:13.304Z,68.10
2019-03-24T08:48:13.274Z,67.99
2019-03-24T08:49:13.282Z,68.10
2019-03-24T08:50:13.252Z,70.00
2019-03-24T08:51:13.245Z,66.54
2019-03-24T08:52:13.221Z,66.23
2019-03-24T08:53:13.215Z,66.23
2019-03-24T08:54:13.236Z,66.54
2019-03-24T08:55:13.191Z,65.89
2019-03-24T08:56:13.180Z,66.71
2019-03-24T08:57:13.193Z,66.20
2019-03-24T08:58:13.171Z,66.61
2019-03-24T08:59:13.177Z,65.59
2019-03-24T09:00:13.144Z,65.19
2019-03-24T09:01:13.124Z,64.78
2019-03-24T09:02:13.118Z,64.75
2019-03-24T09:03:13.119Z,66.17
2019-03-24T09:04:13.133Z,64.34
2019-03-24T09:05:13.106Z,63.01
2019-03-24T09:06:13.090Z,64.23
2019-03-24T09:07:13.059Z,64.54
2019-03-24T09:08:13.047Z,63.90
2019-03-24T09:09:13.086Z,63.90
2019-03-24T09:10:13.030Z,64.11
2019-03-24T09:11:13.023Z,64.61
2019-03-24T09:12:13.007Z,61.76
2019-03-24T09:13:12.994Z,64.11
2019-03-24T09:14:13.008Z,63.97
2019-03-24T09:15:12.978Z,62.85
2019-03-24T09:16:12.975Z,63.06
2019-03-24T09:17:13.044Z,63.26
2019-03-24T09:18:12.937Z,62.85
2019-03-24T09:19:12.973Z,62.85
2019-03-24T09:20:12.947Z,63.36
2019-03-24T09:21:12.932Z,63.59
2019-03-24T09:22:12.889Z,63.87
2019-03-24T09:23:12.908Z,63.46
2019-03-24T09:24:12.866Z,63.77
2019-03-24T09:25:12.906Z,62.04
2019-03-24T09:26:12.851Z,61.94
2019-03-24T09:27:12.849Z,63.57
2019-03-24T09:28:12.868Z,62.68
2019-03-24T09:29:12.822Z,62.17
2019-03-24T09:30:12.821Z,63.29
2019-03-24T09:31:12.794Z,63.93
2019-03-24T09:32:12.829Z,63.83
2019-03-24T09:33:12.775Z,63.93
2019-03-24T09:34:12.756Z,64.75
2019-03-24T09:35:12.759Z,64.14
2019-03-24T09:36:12.740Z,64.23
2019-03-24T09:37:12.724Z,64.64
2019-03-24T09:38:12.718Z,63.83
2019-03-24T09:39:12.725Z,64.03
2019-03-24T09:40:12.720Z,64.23
2019-03-24T09:41:12.683Z,64.44
2019-03-24T09:42:12.689Z,64.03
2019-03-24T09:43:12.662Z,64.54
2019-03-24T09:44:12.658Z,63.83
2019-03-24T09:45:12.657Z,64.64
2019-03-24T09:46:12.649Z,64.23
2019-03-24T09:47:12.617Z,64.20
2019-03-24T09:48:12.603Z,64.44
2019-03-24T09:49:12.583Z,64.03
2019-03-24T09:50:12.599Z,64.34
2019-03-24T09:51:12.591Z,64.23
2019-03-24T09:52:12.557Z,63.83
2019-03-24T09:53:12.555Z,64.51
2019-03-24T09:54:12.528Z,64.31
2019-03-24T09:55:12.537Z,63.12
2019-03-24T09:56:12.538Z,62.81
2019-03-24T09:57:12.509Z,64.23
2019-03-24T09:58:12.499Z,64.95
2019-03-24T09:59:12.484Z,63.53
2019-03-24T10:00:12.490Z,64.11
2019-03-24T10:01:12.502Z,65.43
2019-03-24T10:02:12.455Z,63.90
2019-03-24T10:03:12.449Z,64.51
2019-03-24T10:04:12.426Z,64.31
2019-03-24T10:05:12.406Z,63.39
2019-03-24T10:06:12.470Z,63.80
2019-03-24T10:07:12.401Z,66.72
2019-03-24T10:08:12.371Z,65.19
2019-03-24T10:09:12.365Z,64.55
2019-03-24T10:10:12.389Z,63.40
2019-03-24T10:11:12.365Z,60.97
2019-03-24T10:12:12.378Z,61.88
2019-03-24T10:13:12.345Z,63.02
2019-03-24T10:14:12.344Z,62.49
2019-03-24T10:15:12.311Z,61.68
2019-03-24T10:16:12.305Z,61.78
2019-03-24T10:17:12.293Z,60.86
2019-03-24T10:18:12.266Z,61.78
2019-03-24T10:19:14.339Z,61.65
2019-03-24T10:20:12.247Z,62.66
2019-03-24T10:21:12.259Z,61.75
2019-03-24T10:22:12.259Z,61.72
2019-03-24T10:23:12.227Z,61.41
2019-03-24T10:24:12.204Z,61.11
2019-03-24T10:25:12.203Z,59.99
2019-03-24T10:26:12.181Z,61.52
2019-03-24T10:27:12.200Z,61.41
2019-03-24T10:28:12.156Z,59.16
2019-03-24T10:29:12.162Z,60.88
2019-03-24T10:30:12.148Z,58.95
2019-03-24T10:31:12.164Z,59.97
2019-03-24T10:32:12.152Z,59.26
2019-03-24T10:33:12.105Z,59.03
2019-03-24T10:34:12.110Z,58.42
2019-03-24T10:35:12.098Z,59.23
2019-03-24T10:36:12.095Z,58.82
2019-03-24T10:37:12.093Z,60.42
2019-03-24T10:38:12.058Z,58.69
2019-03-24T10:39:12.060Z,58.36
2019-03-24T10:40:12.019Z,58.16
2019-03-24T10:41:12.030Z,58.76
2019-03-24T10:42:12.043Z,57.65
2019-03-24T10:43:12.011Z,56.67
2019-03-24T10:44:11.982Z,58.49
2019-03-24T10:45:11.974Z,58.80
2019-03-24T10:46:11.970Z,58.87
2019-03-24T10:47:11.982Z,57.75
2019-03-24T10:48:12.015Z,56.95
2019-03-24T10:49:11.926Z,58.26
2019-03-24T10:50:14.259Z,58.23
2019-03-24T10:51:11.907Z,56.82
2019-03-24T10:52:11.949Z,56.82
2019-03-24T10:53:11.888Z,55.60
2019-03-24T10:54:11.873Z,55.60
2019-03-24T10:55:11.859Z,57.42
2019-03-24T10:56:11.868Z,56.82
2019-03-24T10:57:11.844Z,55.47
2019-03-24T10:58:11.860Z,54.36
2019-03-24T10:59:11.817Z,54.56
2019-03-24T11:00:11.817Z,54.46
2019-03-24T11:01:11.795Z,56.79
2019-03-24T11:02:11.795Z,55.88
2019-03-24T11:03:11.788Z,55.17
2019-03-24T11:04:11.773Z,55.17
2019-03-24T11:05:11.750Z,56.56
2019-03-24T11:06:11.737Z,56.36
2019-03-24T11:07:11.722Z,54.82
2019-03-24T11:08:11.773Z,52.48
2019-03-24T11:09:11.762Z,52.89
2019-03-24T11:10:11.702Z,54.11
2019-03-24T11:11:11.684Z,54.31
2019-03-24T11:12:11.677Z,54.11
2019-03-24T11:13:11.690Z,52.39
2019-03-24T11:14:11.672Z,52.28
2019-03-24T11:15:11.657Z,52.28
2019-03-24T11:16:11.631Z,53.60
2019-03-24T11:17:11.622Z,53.60
2019-03-24T11:18:11.619Z,54.31
2019-03-24T11:19:11.648Z,52.76
2019-03-24T11:20:11.594Z,53.47
2019-03-24T11:21:11.582Z,54.38
2019-03-24T11:22:11.562Z,53.27
2019-03-24T11:23:11.594Z,54.05
2019-03-24T11:24:11.589Z,52.03
2019-03-24T11:25:11.531Z,51.73
2019-03-24T11:26:11.527Z,52.44
2019-03-24T11:27:11.514Z,52.23
2019-03-24T11:28:11.492Z,51.10
2019-03-24T11:29:11.490Z,52.51
2019-03-24T11:30:11.491Z,50.49
2019-03-24T11:31:11.473Z,50.59
2019-03-24T11:32:11.459Z,51.20
2019-03-24T11:33:11.453Z,50.59
2019-03-24T11:34:11.421Z,53.02
2019-03-24T11:35:11.463Z,52.59
2019-03-24T11:36:11.437Z,51.18
2019-03-24T11:37:11.388Z,52.36
2019-03-24T11:38:11.386Z,51.96
2019-03-24T11:39:11.388Z,50.35
2019-03-24T11:40:11.376Z,50.04
2019-03-24T11:41:11.353Z,49.54
2019-03-24T11:42:11.401Z,50.16
2019-03-24T11:43:11.363Z,49.26
2019-03-24T11:44:11.319Z,49.56
2019-03-24T11:45:11.356Z,50.37
2019-03-24T11:46:11.302Z,50.07
2019-03-24T11:47:11.309Z,49.36
2019-03-24T11:48:11.288Z,50.67
2019-03-24T11:49:11.258Z,50.49
2019-03-24T11:50:11.277Z,50.67
2019-03-24T11:51:11.318Z,48.27
2019-03-24T11:52:11.249Z,49.58
2019-03-24T11:53:11.228Z,49.28
2019-03-24T11:54:11.214Z,51.81
2019-03-24T11:55:11.212Z,50.29
2019-03-24T11:56:11.201Z,52.61
2019-03-24T11:57:11.202Z,50.57
2019-03-24T11:58:11.160Z,50.37
2019-03-24T11:59:11.157Z,49.87
2019-03-24T12:00:11.147Z,50.45
2019-03-24T12:01:11.154Z,50.45
2019-03-24T12:02:11.127Z,49.64
2019-03-24T12:03:11.130Z,49.72
2019-03-24T12:04:11.097Z,50.75
2019-03-24T12:05:11.102Z,47.52
2019-03-24T12:06:14.811Z,49.26
2019-03-24T12:07:11.084Z,48.53
2019-03-24T12:08:11.065Z,48.22
2019-03-24T12:09:11.086Z,49.44
2019-03-24T12:10:11.078Z,49.76
2019-03-24T12:11:11.060Z,50.65
2019-03-24T12:12:11.061Z,50.75
2019-03-24T12:13:10.996Z,50.85
2019-03-24T12:14:10.985Z,50.24
2019-03-24T12:15:10.985Z,50.35
2019-03-24T12:16:10.985Z,50.24
2019-03-24T12:17:10.955Z,47.90
2019-03-24T12:18:10.946Z,48.13
2019-03-24T12:19:10.945Z,49.44
2019-03-24T12:20:10.955Z,50.73
2019-03-24T12:21:10.960Z,49.64
2019-03-24T12:22:10.907Z,50.24
2019-03-24T12:23:10.892Z,49.94
2019-03-24T12:24:10.923Z,51.05
2019-03-24T12:25:10.873Z,50.04
2019-03-24T12:26:10.903Z,50.24
2019-03-24T12:27:10.862Z,50.45
2019-03-24T12:28:10.838Z,50.85
2019-03-24T12:29:10.836Z,49.74
2019-03-24T12:30:10.809Z,50.55
2019-03-24T12:31:10.840Z,51.66
2019-03-24T12:32:10.808Z,49.46
2019-03-24T12:33:10.788Z,49.96
2019-03-24T12:34:10.764Z,51.07
2019-03-24T12:35:10.796Z,50.59
2019-03-24T12:36:10.815Z,51.40
2019-03-24T12:37:10.752Z,50.09
2019-03-24T12:38:10.729Z,51.12
2019-03-24T12:39:10.715Z,52.14
2019-03-24T12:40:10.719Z,51.53
2019-03-24T12:41:10.696Z,51.83
2019-03-24T12:42:10.719Z,51.25
2019-03-24T12:43:19.057Z,52.14
2019-03-24T12:44:11.669Z,51.05
2019-03-24T12:45:10.650Z,53.47
2019-03-24T12:46:10.635Z,52.67
2019-03-24T12:47:10.675Z,52.16
2019-03-24T12:48:10.646Z,52.28
2019-03-24T12:49:10.627Z,51.57
2019-03-24T12:50:10.629Z,53.22
2019-03-24T12:51:10.577Z,53.93
2019-03-24T12:52:12.882Z,54.33